• Join FlightAware (Why Join?)
  • Login
  • US Flag 
10:22AM EDT


 

Airport Tracker/Info


-or-


 

Live Flight TrackerFlight Track Log ✈ FDX708 ✈ 10-Apr-2013 ✈ KMEM - KPHL

Flight Track Log - Related Links

Times and Time Zones

All times are in EDT time to prevent confusion due to time zone crossing. See the FDX708 flight status page for this flight to view local times or setup timezone preferences in your user account.

Time Position Orientation Groundspeed Altitude Reporting Facility
EDT Latitude Longitude Course Direction KTS MPH feet Rate Location/Type
05:21PM 35.0167 -89.9667 171° South 151 174 1,100  Level KMEM
05:22PM 34.9333 -89.9500 171° South 235 270 3,400 1,620 Climbing KMEM
05:23PM 34.9333 -89.8833 90° East 276 318 5,100 2,040 Climbing KMEM
05:26PM 35.0281 -89.6192 66° East 345 397 11,000 1,680 Climbing Memphis Center
05:27PM 35.0817 -89.4994 61° Northeast 374 430 11,800 1,380 Climbing Memphis Center
05:28PM 35.1389 -89.3719 61° Northeast 413 475 13,800 1,860 Climbing Memphis Center
05:29PM 35.2003 -89.2236 63° Northeast 432 497 15,600 1,860 Climbing Memphis Center
05:30PM 35.2594 -89.0831 63° Northeast 443 510 17,600 1,980 Climbing Memphis Center
05:31PM 35.3142 -88.9397 65° Northeast 459 528 19,600 1,680 Climbing Memphis Center
05:32PM 35.3686 -88.7911 66° East 471 542 21,000 1,320 Climbing Memphis Center
05:33PM 35.4192 -88.6553 65° Northeast 476 548 22,300 1,380 Climbing Memphis Center
05:34PM 35.4772 -88.5011 65° Northeast 482 555 23,800 1,320 Climbing Memphis Center
05:35PM 35.5375 -88.3439 65° Northeast 493 567 25,000 900 Climbing Memphis Center
05:41PM 35.7960 -87.3490 65° Northeast 31,000 900 Climbing FlightAware
05:41PM 35.8230 -87.2240 75° East 31,000 720 Level FlightAware
05:42PM 35.8480 -87.1070 75° East 31,000 900 Level FlightAware
05:43PM 35.8770 -86.9770 75° East 31,900 1,200 Climbing FlightAware
05:43PM 35.9080 -86.8650 71° East 32,800 1,200 Climbing FlightAware
05:44PM 35.9490 -86.7490 66° East 33,800 1,080 Climbing FlightAware
05:45PM 35.9706 -86.6888 66° East 501 577 34,000 240 Climbing FlightAware ADS-B
05:45PM 36.0006 -86.6047 66° East 518 596 34,000  Level FlightAware ADS-B
05:46PM 36.0305 -86.5197 66° East 510 587 34,000  Level FlightAware ADS-B
05:46PM 36.0699 -86.4094 66° East 504 580 34,000  Level FlightAware ADS-B
05:47PM 36.1086 -86.3002 66° East 505 581 34,000  Level FlightAware ADS-B
05:47PM 36.1370 -86.2197 66° East 501 577 34,000  Level FlightAware ADS-B
05:48PM 36.1668 -86.1342 67° East 506 582 34,000 60 Level FlightAware ADS-B
05:49PM 36.2210 -85.9780 67° East 34,000 120 Level FlightAware
05:50PM 36.2630 -85.8580 67° East 34,000 240 Level FlightAware
05:50PM 36.2920 -85.7747 67° East 499 574 34,300 660 Climbing FlightAware ADS-B
05:51PM 36.3206 -85.6918 67° East 498 573 34,700 360 Climbing FlightAware ADS-B
05:52PM 36.3760 -85.5310 67° East 35,000 180 Climbing FlightAware
05:52PM 36.3924 -85.4831 67° East 504 580 35,000  Level FlightAware ADS-B
05:53PM 36.4202 -85.4019 67° East 515 593 35,000  Level FlightAware ADS-B
05:53PM 36.4482 -85.3197 67° East 515 593 35,000  Level FlightAware ADS-B
05:54PM 36.5005 -85.1660 67° East 507 583 35,000  Level FlightAware ADS-B
05:55PM 36.5387 -85.0537 67° East 507 583 35,000  Level FlightAware ADS-B
05:55PM 36.5664 -84.9712 67° East 500 575 35,000  Level FlightAware ADS-B
05:56PM 36.6073 -84.8491 67° East 502 578 35,000  Level FlightAware ADS-B
05:57PM 36.6344 -84.7683 67° East 509 586 35,000  Level FlightAware ADS-B
05:57PM 36.6643 -84.6784 67° East 499 574 35,000  Level FlightAware ADS-B
05:58PM 36.6935 -84.5913 67° East 497 572 35,000  Level FlightAware ADS-B
05:58PM 36.7202 -84.5110 67° East 504 580 35,000  Level FlightAware ADS-B
05:59PM 36.7469 -84.4306 67° East 503 579 35,000  Level FlightAware ADS-B
05:59PM 36.7737 -84.3496 68° East 503 579 35,000  Level FlightAware ADS-B
06:00PM 36.8006 -84.2675 68° East 507 583 35,000  Level FlightAware ADS-B
06:00PM 36.8275 -84.1860 68° East 511 588 35,000  Level FlightAware ADS-B
06:01PM 36.8576 -84.0940 68° East 497 572 35,000  Level FlightAware ADS-B
06:02PM 36.9070 -83.9424 68° East 504 580 35,000  Level FlightAware ADS-B
06:02PM 36.9335 -83.8607 68° East 499 574 35,000  Level FlightAware ADS-B
06:03PM 36.9630 -83.7699 68° East 511 588 35,000  Level FlightAware ADS-B
06:03PM 36.9913 -83.6818 68° East 513 590 35,000  Level FlightAware ADS-B
06:04PM 37.0179 -83.5998 68° East 505 581 35,000 60 Level FlightAware ADS-B
06:04PM 37.0476 -83.5071 68° East 506 582 35,100  Climbing FlightAware ADS-B
06:05PM 37.1024 -83.3354 68° East 511 588 35,000 -60 Descending FlightAware ADS-B
06:07PM 37.1709 -83.1193 68° East 35,000  Level FlightAware ADS-B
06:08PM 37.2510 -82.8644 68° East 35,000  Level FlightAware ADS-B
06:09PM 37.2768 -82.7816 69° East 506 582 35,000  Level FlightAware ADS-B
06:09PM 37.3036 -82.6968 68° East 502 578 35,000  Level FlightAware ADS-B
06:10PM 37.3360 -82.5928 69° East 507 583 35,000  Level FlightAware ADS-B
06:11PM 37.3700 -82.4830 69° East 507 583 35,000  Level FlightAware ADS-B
06:11PM 37.3973 -82.3942 69° East 504 580 35,000  Level FlightAware ADS-B
06:12PM 37.4536 -82.2112 69° East 505 581 35,000  Level FlightAware ADS-B
06:13PM 37.4795 -82.1257 69° East 502 578 35,000  Level FlightAware ADS-B
06:13PM 37.5054 -82.0411 69° East 506 582 35,000  Level FlightAware ADS-B
06:14PM 37.5312 -81.9560 69° East 506 582 35,000  Level FlightAware ADS-B
06:14PM 37.5583 -81.8668 69° East 503 579 35,000  Level FlightAware ADS-B
06:15PM 37.5834 -81.7837 69° East 502 578 35,000  Level FlightAware ADS-B
06:15PM 37.6103 -81.6943 69° East 499 574 35,000  Level FlightAware ADS-B
06:16PM 37.6366 -81.6066 69° East 498 573 35,000  Level FlightAware ADS-B
06:16PM 37.6620 -81.5220 69° East 497 572 35,000  Level FlightAware ADS-B
06:17PM 37.6865 -81.4396 69° East 497 572 35,000  Level FlightAware ADS-B
06:19PM 37.7863 -81.0254 73° East 504 580 35,000  Level FlightAware ADS-B
06:20PM 37.7944 -80.8994 73° East 506 582 35,000  Level Indianapolis Center
06:21PM 37.8003 -80.8300 84° East 492 566 35,000  Level Washington Center
06:22PM 37.8119 -80.6547 85° East 497 572 35,000  Level Washington Center
06:23PM 37.8228 -80.4950 85° East 504 580 35,000  Level Washington Center
06:24PM 37.8339 -80.3194 85° East 499 574 35,000  Level Washington Center
06:25PM 37.8450 -80.1439 85° East 499 574 35,000 -420 Level Washington Center
06:26PM 37.8536 -79.9683 86° East 494 568 34,200 -1,020 Descending Washington Center
06:27PM 37.8667 -79.7744 85° East 494 568 33,000 -600 Descending Washington Center
06:28PM 37.8769 -79.5986 86° East 494 568 33,000 -480 Level Washington Center
06:34PM 37.9650 -78.5640 86° East 32,800 -540 Descending FlightAware
06:35PM 37.9930 -78.3290 81° East 31,600 -780 Descending FlightAware
06:36PM 38.0180 -78.1650 79° East 30,600 -780 Descending FlightAware
06:36PM 38.0400 -78.1040 65° Northeast 30,200 -780 Descending FlightAware
06:38PM 38.1470 -77.8840 58° Northeast 29,000 -720 Descending FlightAware
06:39PM 38.2170 -77.7430 58° Northeast 29,000 -720 Level FlightAware
06:39PM 38.2640 -77.6480 58° Northeast 29,000 -840 Level FlightAware
06:40PM 38.3150 -77.5450 58° Northeast 29,000 -960 Level FlightAware
06:41PM 38.3720 -77.4300 58° Northeast 28,700 -1,080 Descending FlightAware
06:41PM 38.4150 -77.3440 57° Northeast 28,000 -1,260 Descending FlightAware
06:42PM 38.4660 -77.2380 58° Northeast 27,200 -1,260 Descending FlightAware
06:43PM 38.5270 -77.1130 58° Northeast 26,200 -1,380 Descending FlightAware
06:43PM 38.5720 -77.0210 58° Northeast 25,400 -1,380 Descending FlightAware
06:44PM 38.6000 -76.9633 58° Northeast 502 578 25,000 -1,380 Descending FlightAware ADS-B
06:44PM 38.6365 -76.8876 58° Northeast 495 570 24,400 -780 Descending FlightAware ADS-B
06:45PM 38.6710 -76.8170 58° Northeast 24,000 -480 Descending FlightAware
06:45PM 38.6947 -76.7640 60° Northeast 491 565 24,000 -540 Level FlightAware ADS-B
06:46PM 38.7206 -76.6736 70° East 492 566 23,600 -2,340 Descending FlightAware ADS-B
06:46PM 38.7430 -76.5666 75° East 482 555 21,300 -3,060 Descending FlightAware ADS-B
06:47PM 38.7618 -76.4758 75° East 473 544 20,000 -2,520 Descending FlightAware ADS-B
06:47PM 38.7817 -76.3782 75° East 463 533 18,400 -2,820 Descending FlightAware ADS-B
06:48PM 38.7999 -76.2913 75° East 453 521 16,700 -2,880 Descending FlightAware ADS-B
06:48PM 38.8169 -76.2091 75° East 448 516 15,300 -1,560 Descending FlightAware ADS-B
06:49PM 38.8332 -76.1291 75° East 450 518 15,100 -240 Descending FlightAware ADS-B
06:49PM 38.8497 -76.0460 76° East 449 517 15,100  Level FlightAware ADS-B
06:50PM 38.8666 -75.9627 75° East 450 518 15,100  Level FlightAware ADS-B
06:51PM 38.8834 -75.8847 75° East 446 513 15,100  Level FlightAware ADS-B
06:51PM 38.9204 -75.8135 56° Northeast 433 498 15,100 -600 Level FlightAware ADS-B
06:52PM 38.9650 -75.7690 38° Northeast 14,800 -1,080 Descending FlightAware
06:52PM 38.9857 -75.7495 36° Northeast 425 489 14,400 -3,660 Descending FlightAware ADS-B
06:52PM 39.0380 -75.6985 37° Northeast 416 479 12,300 -3,060 Descending FlightAware ADS-B
06:53PM 39.0900 -75.6752 19° North 391 450 11,100 -1,860 Descending FlightAware ADS-B
06:53PM 39.1438 -75.6706 North 360 414 10,400 -960 Descending FlightAware ADS-B
06:54PM 39.1963 -75.6641 North 331 381 10,100 -300 Descending FlightAware ADS-B
06:54PM 39.2394 -75.6575 North 282 325 10,100  Level FlightAware ADS-B
06:55PM 39.2794 -75.6519 North 288 331 10,100  Level FlightAware ADS-B
06:55PM 39.3149 -75.6275 28° Northeast 291 335 10,100 -420 Level FlightAware ADS-B
06:56PM 39.3319 -75.6098 39° Northeast 300 345 9,800 -1,200 Descending FlightAware ADS-B
06:56PM 39.3489 -75.5834 50° Northeast 296 341 9,400 -1,380 Descending FlightAware ADS-B
06:56PM 39.3627 -75.5598 53° Northeast 304 350 9,000 -1,560 Descending FlightAware ADS-B
06:57PM 39.3757 -75.5382 52° Northeast 297 342 8,600 -1,560 Descending FlightAware ADS-B
06:57PM 39.3887 -75.5169 52° Northeast 294 338 8,200 -1,680 Descending FlightAware ADS-B
06:57PM 39.4037 -75.4931 51° Northeast 300 345 7,700 -1,500 Descending FlightAware ADS-B
06:57PM 39.4195 -75.4673 52° Northeast 295 339 7,300 -1,080 Descending FlightAware ADS-B
06:58PM 39.4335 -75.4443 52° Northeast 292 336 7,100 -420 Descending FlightAware ADS-B
06:58PM 39.4473 -75.4215 52° Northeast 287 330 7,100  Level FlightAware ADS-B
06:58PM 39.4607 -75.3990 52° Northeast 293 337 7,100  Level FlightAware ADS-B
06:59PM 39.4744 -75.3765 52° Northeast 297 342 7,100  Level FlightAware ADS-B
06:59PM 39.4881 -75.3570 48° Northeast 297 342 7,100  Level FlightAware ADS-B
06:59PM 39.5034 -75.3386 43° Northeast 290 334 7,100  Level FlightAware ADS-B
06:59PM 39.5187 -75.3204 43° Northeast 294 338 7,100  Level FlightAware ADS-B
07:00PM 39.5334 -75.3022 44° Northeast 296 341 7,100  Level FlightAware ADS-B
07:00PM 39.5491 -75.2830 43° Northeast 299 344 7,100  Level FlightAware ADS-B
07:00PM 39.5695 -75.2581 43° Northeast 297 342 7,100  Level FlightAware ADS-B
07:00PM 39.5850 -75.2390 44° Northeast 297 342 7,100  Level FlightAware ADS-B
07:01PM 39.6005 -75.2202 43° Northeast 293 337 7,100  Level FlightAware ADS-B
07:01PM 39.6159 -75.2018 43° Northeast 294 338 7,100 -600 Level FlightAware ADS-B
07:01PM 39.6309 -75.1834 43° Northeast 301 346 6,800 -1,200 Descending FlightAware ADS-B
07:01PM 39.6466 -75.1645 43° Northeast 295 339 6,500 -1,200 Descending FlightAware ADS-B
07:02PM 39.6618 -75.1455 44° Northeast 291 335 6,200 -600 Descending FlightAware ADS-B
07:02PM 39.6778 -75.1261 43° Northeast 293 337 6,200  Level FlightAware ADS-B
07:02PM 39.6926 -75.1080 43° Northeast 288 331 6,200  Level FlightAware ADS-B
07:03PM 39.7190 -75.0760 43° Northeast 6,200  Level FlightAware
07:03PM 39.7422 -75.0543 36° Northeast 286 329 6,200  Level FlightAware ADS-B
07:03PM 39.7593 -75.0450 23° Northeast 262 302 6,200 -240 Level FlightAware ADS-B
07:04PM 39.7769 -75.0352 23° Northeast 243 280 6,100 -720 Descending FlightAware ADS-B
07:04PM 39.7956 -75.0248 23° Northeast 229 264 5,800 -1,440 Descending FlightAware ADS-B
07:04PM 39.8107 -75.0201 13° North 218 251 5,300 -1,800 Descending FlightAware ADS-B
07:04PM 39.8260 -75.0184 North 219 252 4,900 -1,800 Descending FlightAware ADS-B
07:05PM 39.8411 -75.0169 North 217 250 4,400 -1,800 Descending FlightAware ADS-B
07:05PM 39.8567 -75.0159 North 221 254 4,000 -1,800 Descending FlightAware ADS-B
07:05PM 39.8723 -75.0145 North 223 257 3,500 -1,800 Descending FlightAware ADS-B
07:05PM 39.8876 -75.0135 North 219 252 3,100 -1,020 Descending FlightAware ADS-B
07:06PM 39.9075 -75.0127 North 201 231 2,900 -1,020 Descending FlightAware ADS-B
07:06PM 39.9198 -75.0195 337° Northwest 184 212 2,500 -1,020 Descending FlightAware ADS-B
07:06PM 39.9219 -75.0433 277° West 154 177 2,200 -300 Descending FlightAware ADS-B
07:07PM 39.9151 -75.0544 231° Southwest 153 176 2,300 180 Climbing FlightAware ADS-B
07:07PM 39.9080 -75.0655 230° Southwest 156 180 2,300  Level FlightAware ADS-B
07:07PM 39.9035 -75.0785 246° West 154 177 2,300 -420 Level FlightAware ADS-B
07:07PM 39.9000 -75.0935 253° West 157 181 2,100 -720 Descending FlightAware ADS-B
07:08PM 39.8967 -75.1094 255° West 153 176 1,900 -780 Descending FlightAware ADS-B
07:08PM 39.8939 -75.1219 254° West 139 160 1,700 -720 Descending FlightAware ADS-B
07:08PM 39.8912 -75.1365 256° West 131 151 1,500 -720 Descending FlightAware ADS-B
07:09PM 39.8889 -75.1480 255° West 128 147 1,300 -780 Descending FlightAware ADS-B
07:09PM 39.8867 -75.1604 257° West 129 148 1,100 -600 Descending FlightAware ADS-B
07:09PM 39.8845 -75.1722 256° West 131 151 1,000 -600 Descending FlightAware ADS-B
07:09PM 39.8821 -75.1849 256° West 129 148 800 -720 Descending FlightAware ADS-B
07:10PM 39.8795 -75.1987 256° West 135 155 600 -720 Descending FlightAware ADS-B